sensor_id;sensor_type;location;lat;lon;timestamp;pressure;altitude;pressure_sealevel;temperature;humidity
50854;BME280;44154;45.506;-122.806;2023-04-27T00:00:26;101000.91;;;25.83;35.09
50854;BME280;44154;45.506;-122.806;2023-04-27T00:02:52;101006.47;;;25.93;35.08
50854;BME280;44154;45.506;-122.806;2023-04-27T00:05:18;101007.28;;;25.94;35.08
50854;BME280;44154;45.506;-122.806;2023-04-27T00:07:45;101000.91;;;25.83;35.20
50854;BME280;44154;45.506;-122.806;2023-04-27T00:10:11;101009.69;;;25.85;35.32
50854;BME280;44154;45.506;-122.806;2023-04-27T00:12:38;100998.25;;;25.93;35.08
50854;BME280;44154;45.506;-122.806;2023-04-27T00:15:07;100955.81;;;25.74;35.10
50854;BME280;44154;45.506;-122.806;2023-04-27T00:17:34;100992.94;;;26.09;35.17
50854;BME280;44154;45.506;-122.806;2023-04-27T00:20:00;100980.59;;;26.11;35.10
50854;BME280;44154;45.506;-122.806;2023-04-27T00:22:26;100991.31;;;26.13;34.62
50854;BME280;44154;45.506;-122.806;2023-04-27T00:24:52;100980.06;;;26.09;35.00
50854;BME280;44154;45.506;-122.806;2023-04-27T00:27:18;100982.06;;;26.19;34.78
50854;BME280;44154;45.506;-122.806;2023-04-27T00:29:45;100983.47;;;26.27;34.59
50854;BME280;44154;45.506;-122.806;2023-04-27T00:32:11;100977.38;;;26.20;34.02
50854;BME280;44154;45.506;-122.806;2023-04-27T00:34:37;100982.06;;;26.19;33.85
50854;BME280;44154;45.506;-122.806;2023-04-27T00:37:04;100984.31;;;26.27;33.98
50854;BME280;44154;45.506;-122.806;2023-04-27T00:39:32;100975.00;;;26.28;34.11
50854;BME280;44154;45.506;-122.806;2023-04-27T00:41:59;100911.25;;;25.84;34.35
50854;BME280;44154;45.506;-122.806;2023-04-27T00:44:26;100972.25;;;26.28;34.42
50854;BME280;44154;45.506;-122.806;2023-04-27T00:46:53;100972.28;;;26.34;34.39
50854;BME280;44154;45.506;-122.806;2023-04-27T00:49:20;100969.56;;;26.39;34.96
50854;BME280;44154;45.506;-122.806;2023-04-27T00:51:50;100953.84;;;26.24;35.56
50854;BME280;44154;45.506;-122.806;2023-04-27T00:54:19;100971.22;;;26.40;35.48
50854;BME280;44154;45.506;-122.806;2023-04-27T00:56:51;100973.97;;;26.40;34.43
50854;BME280;44154;45.506;-122.806;2023-04-27T00:59:18;100985.22;;;26.38;34.04
50854;BME280;44154;45.506;-122.806;2023-04-27T01:01:48;100980.78;;;26.32;34.73
50854;BME280;44154;45.506;-122.806;2023-04-27T01:04:15;100979.41;;;26.35;34.83
50854;BME280;44154;45.506;-122.806;2023-04-27T01:06:42;100981.69;;;26.43;35.11
50854;BME280;44154;45.506;-122.806;2023-04-27T01:09:09;100977.31;;;26.47;34.74
50854;BME280;44154;45.506;-122.806;2023-04-27T01:11:35;100964.53;;;26.25;35.25
50854;BME280;44154;45.506;-122.806;2023-04-27T01:14:05;100977.84;;;26.44;35.43
50854;BME280;44154;45.506;-122.806;2023-04-27T01:16:33;100983.34;;;26.49;34.85
50854;BME280;44154;45.506;-122.806;2023-04-27T01:18:59;100977.38;;;26.52;34.79
50854;BME280;44154;45.506;-122.806;2023-04-27T01:21:26;100980.63;;;26.49;35.54
50854;BME280;44154;45.506;-122.806;2023-04-27T01:23:53;100982.28;;;26.50;36.02
50854;BME280;44154;45.506;-122.806;2023-04-27T01:26:19;100982.81;;;26.47;35.71
50854;BME280;44154;45.506;-122.806;2023-04-27T01:28:46;100985.88;;;26.51;35.90
50854;BME280;44154;45.506;-122.806;2023-04-27T01:31:12;100994.44;;;26.59;35.70
50854;BME280;44154;45.506;-122.806;2023-04-27T01:33:38;100936.84;;;26.27;35.93
50854;BME280;44154;45.506;-122.806;2023-04-27T01:36:06;100994.44;;;26.64;36.39
50854;BME280;44154;45.506;-122.806;2023-04-27T01:38:33;100968.59;;;26.55;36.32
50854;BME280;44154;45.506;-122.806;2023-04-27T01:40:59;100991.78;;;26.75;36.25
50854;BME280;44154;45.506;-122.806;2023-04-27T01:43:29;100977.72;;;26.66;36.51
50854;BME280;44154;45.506;-122.806;2023-04-27T01:46:09;100991.72;;;26.64;36.18
50854;BME280;44154;45.506;-122.806;2023-04-27T01:48:37;100971.91;;;26.57;36.91
50854;BME280;44154;45.506;-122.806;2023-04-27T01:51:04;100988.78;;;26.76;36.78
50854;BME280;44154;45.506;-122.806;2023-04-27T01:53:30;100972.03;;;26.73;37.19
50854;BME280;44154;45.506;-122.806;2023-04-27T01:55:56;100981.44;;;26.87;37.31
50854;BME280;44154;45.506;-122.806;2023-04-27T01:58:24;100974.34;;;26.91;37.49
50854;BME280;44154;45.506;-122.806;2023-04-27T02:00:51;100954.78;;;26.82;37.13
50854;BME280;44154;45.506;-122.806;2023-04-27T02:03:17;100957.81;;;26.86;36.82
50854;BME280;44154;45.506;-122.806;2023-04-27T02:05:43;100981.81;;;27.01;37.30
50854;BME280;44154;45.506;-122.806;2023-04-27T02:08:09;100963.34;;;26.91;37.17
50854;BME280;44154;45.506;-122.806;2023-04-27T02:10:36;100952.38;;;26.91;37.08
50854;BME280;44154;45.506;-122.806;2023-04-27T02:13:02;100973.56;;;27.06;37.25
50854;BME280;44154;45.506;-122.806;2023-04-27T02:15:28;100974.97;;;27.09;36.94
50854;BME280;44154;45.506;-122.806;2023-04-27T02:17:55;100977.16;;;27.12;36.99
50854;BME280;44154;45.506;-122.806;2023-04-27T02:20:21;100984.59;;;27.16;37.13
50854;BME280;44154;45.506;-122.806;2023-04-27T02:22:48;100980.50;;;27.19;36.82
50854;BME280;44154;45.506;-122.806;2023-04-27T02:25:16;100985.72;;;27.21;36.98
50854;BME280;44154;45.506;-122.806;2023-04-27T02:27:42;100982.69;;;27.22;36.89
50854;BME280;44154;45.506;-122.806;2023-04-27T02:30:10;100980.53;;;27.24;37.03
50854;BME280;44154;45.506;-122.806;2023-04-27T02:32:36;100975.56;;;27.26;37.01
50854;BME280;44154;45.506;-122.806;2023-04-27T02:35:03;100937.78;;;26.91;37.23
50854;BME280;44154;45.506;-122.806;2023-04-27T02:37:29;100960.72;;;27.17;36.82
50854;BME280;44154;45.506;-122.806;2023-04-27T02:39:56;100981.63;;;27.28;37.33
50854;BME280;44154;45.506;-122.806;2023-04-27T02:42:22;100763.50;;;25.92;37.09
50854;BME280;44154;45.506;-122.806;2023-04-27T02:44:48;100969.78;;;27.17;36.63
50854;BME280;44154;45.506;-122.806;2023-04-27T02:47:14;100982.06;;;27.05;36.98
50854;BME280;44154;45.506;-122.806;2023-04-27T02:49:41;100990.88;;;27.07;37.14
50854;BME280;44154;45.506;-122.806;2023-04-27T02:52:07;100992.47;;;26.97;37.19
50854;BME280;44154;45.506;-122.806;2023-04-27T02:54:34;100989.50;;;27.04;36.88
50854;BME280;44154;45.506;-122.806;2023-04-27T02:57:01;100979.03;;;26.96;37.07
50854;BME280;44154;45.506;-122.806;2023-04-27T02:59:27;100995.00;;;27.09;37.14
50854;BME280;44154;45.506;-122.806;2023-04-27T03:01:53;101000.25;;;27.16;37.59
50854;BME280;44154;45.506;-122.806;2023-04-27T03:04:19;100996.63;;;27.05;37.43
50854;BME280;44154;45.506;-122.806;2023-04-27T03:06:45;100998.59;;;27.10;37.38
50854;BME280;44154;45.506;-122.806;2023-04-27T03:09:11;101006.88;;;27.20;37.43
50854;BME280;44154;45.506;-122.806;2023-04-27T03:11:38;101006.34;;;27.28;37.54
50854;BME280;44154;45.506;-122.806;2023-04-27T03:14:05;101011.53;;;27.20;37.46
50854;BME280;44154;45.506;-122.806;2023-04-27T03:16:32;101010.44;;;27.21;37.62
50854;BME280;44154;45.506;-122.806;2023-04-27T03:18:58;101013.78;;;27.23;37.28
50854;BME280;44154;45.506;-122.806;2023-04-27T03:21:24;101010.44;;;27.21;37.17
50854;BME280;44154;45.506;-122.806;2023-04-27T03:23:51;101005.22;;;27.19;37.09
50854;BME280;44154;45.506;-122.806;2023-04-27T03:26:18;101016.31;;;27.34;36.97
50854;BME280;44154;45.506;-122.806;2023-04-27T03:28:45;101029.50;;;27.38;36.93
50854;BME280;44154;45.506;-122.806;2023-04-27T03:31:12;101021.81;;;27.40;37.00
50854;BME280;44154;45.506;-122.806;2023-04-27T03:33:39;101016.03;;;27.36;37.04
50854;BME280;44154;45.506;-122.806;2023-04-27T03:36:06;101033.34;;;27.37;37.24
50854;BME280;44154;45.506;-122.806;2023-04-27T03:38:34;101039.13;;;27.35;37.01
50854;BME280;44154;45.506;-122.806;2023-04-27T03:41:00;101031.88;;;27.24;36.85
50854;BME280;44154;45.506;-122.806;2023-04-27T03:43:27;101045.69;;;27.34;36.57
50854;BME280;44154;45.506;-122.806;2023-04-27T03:45:53;101050.34;;;27.33;36.27
50854;BME280;44154;45.506;-122.806;2023-04-27T03:48:20;101049.03;;;27.36;36.08
50854;BME280;44154;45.506;-122.806;2023-04-27T03:50:47;101042.06;;;27.28;35.61
50854;BME280;44154;45.506;-122.806;2023-04-27T03:53:13;101048.41;;;27.29;35.62
50854;BME280;44154;45.506;-122.806;2023-04-27T03:55:41;101057.78;;;27.33;35.95
50854;BME280;44154;45.506;-122.806;2023-04-27T03:58:08;101077.91;;;27.44;36.22
50854;BME280;44154;45.506;-122.806;2023-04-27T04:00:38;101083.94;;;27.41;36.11
50854;BME280;44154;45.506;-122.806;2023-04-27T04:03:05;101089.44;;;27.41;35.72
50854;BME280;44154;45.506;-122.806;2023-04-27T04:05:32;101084.47;;;27.38;35.71
50854;BME280;44154;45.506;-122.806;2023-04-27T04:07:58;101096.03;;;27.40;36.48
50854;BME280;44154;45.506;-122.806;2023-04-27T04:10:25;101097.69;;;27.41;36.38
50854;BME280;44154;45.506;-122.806;2023-04-27T04:12:51;101100.16;;;27.42;36.30
50854;BME280;44154;45.506;-122.806;2023-04-27T04:15:18;101096.03;;;27.40;36.24
50854;BME280;44154;45.506;-122.806;2023-04-27T04:17:45;101114.22;;;27.46;35.82
50854;BME280;44154;45.506;-122.806;2023-04-27T04:20:12;101105.94;;;27.41;35.41
50854;BME280;44154;45.506;-122.806;2023-04-27T04:22:38;101123.53;;;27.45;35.28
50854;BME280;44154;45.506;-122.806;2023-04-27T04:25:05;101108.13;;;27.39;35.79
50854;BME280;44154;45.506;-122.806;2023-04-27T04:27:32;101110.03;;;27.38;35.73
50854;BME280;44154;45.506;-122.806;2023-04-27T04:29:58;101121.34;;;27.42;35.50
50854;BME280;44154;45.506;-122.806;2023-04-27T04:32:25;101119.13;;;27.39;35.86
50854;BME280;44154;45.506;-122.806;2023-04-27T04:34:56;101121.28;;;27.37;35.47
50854;BME280;44154;45.506;-122.806;2023-04-27T04:37:23;101116.25;;;27.23;36.00
50854;BME280;44154;45.506;-122.806;2023-04-27T04:39:50;101111.28;;;27.20;36.12
50854;BME280;44154;45.506;-122.806;2023-04-27T04:42:16;101135.50;;;27.28;35.90
50854;BME280;44154;45.506;-122.806;2023-04-27T04:44:43;101133.28;;;27.25;36.20
50854;BME280;44154;45.506;-122.806;2023-04-27T04:47:09;101139.31;;;27.22;36.19
50854;BME280;44154;45.506;-122.806;2023-04-27T04:49:35;101142.06;;;27.22;36.00
50854;BME280;44154;45.506;-122.806;2023-04-27T04:52:02;101143.66;;;27.13;36.00
50854;BME280;44154;45.506;-122.806;2023-04-27T04:54:31;101117.75;;;26.98;35.60
50854;BME280;44154;45.506;-122.806;2023-04-27T04:56:57;101145.31;;;27.14;35.76
50854;BME280;44154;45.506;-122.806;2023-04-27T04:59:23;101143.69;;;27.18;35.85
50854;BME280;44154;45.506;-122.806;2023-04-27T05:01:50;101144.53;;;27.18;35.88
50854;BME280;44154;45.506;-122.806;2023-04-27T05:04:20;101152.78;;;27.18;35.81
50854;BME280;44154;45.506;-122.806;2023-04-27T05:06:47;101147.50;;;27.12;35.56
50854;BME280;44154;45.506;-122.806;2023-04-27T05:09:13;101150.25;;;27.12;35.41
50854;BME280;44154;45.506;-122.806;2023-04-27T05:11:40;101151.78;;;26.97;35.36
50854;BME280;44154;45.506;-122.806;2023-04-27T05:14:06;101153.13;;;26.95;35.90
50854;BME280;44154;45.506;-122.806;2023-04-27T05:16:32;101156.41;;;26.92;35.44
50854;BME280;44154;45.506;-122.806;2023-04-27T05:18:58;101156.47;;;26.97;35.83
50854;BME280;44154;45.506;-122.806;2023-04-27T05:21:24;101154.47;;;26.92;35.60
50854;BME280;44154;45.506;-122.806;2023-04-27T05:23:50;101164.25;;;26.78;36.17
50854;BME280;44154;45.506;-122.806;2023-04-27T05:26:17;101164.03;;;26.85;35.46
50854;BME280;44154;45.506;-122.806;2023-04-27T05:28:44;101160.50;;;26.89;35.85
50854;BME280;44154;45.506;-122.806;2023-04-27T05:31:11;101157.81;;;26.94;35.27
50854;BME280;44154;45.506;-122.806;2023-04-27T05:33:37;101163.84;;;26.96;35.57
50854;BME280;44154;45.506;-122.806;2023-04-27T05:36:04;101158.41;;;27.02;35.45
50854;BME280;44154;45.506;-122.806;2023-04-27T05:38:30;101134.97;;;26.89;34.98
50854;BME280;44154;45.506;-122.806;2023-04-27T05:40:58;101166.69;;;27.07;34.96
50854;BME280;44154;45.506;-122.806;2023-04-27T05:43:25;101164.78;;;27.07;35.64
50854;BME280;44154;45.506;-122.806;2023-04-27T05:45:52;101066.28;;;26.51;35.08
50854;BME280;44154;45.506;-122.806;2023-04-27T05:48:18;101165.59;;;27.08;35.50
50854;BME280;44154;45.506;-122.806;2023-04-27T05:50:45;101151.78;;;26.97;35.96
50854;BME280;44154;45.506;-122.806;2023-04-27T05:53:11;101166.69;;;27.07;35.66
50854;BME280;44154;45.506;-122.806;2023-04-27T05:55:37;101161.50;;;27.10;35.70
50854;BME280;44154;45.506;-122.806;2023-04-27T05:58:04;101101.91;;;26.73;35.59
50854;BME280;44154;45.506;-122.806;2023-04-27T06:00:30;101166.72;;;27.12;35.61
50854;BME280;44154;45.506;-122.806;2023-04-27T06:02:56;101165.06;;;27.11;35.26
50854;BME280;44154;45.506;-122.806;2023-04-27T06:05:22;101155.69;;;27.07;35.42
50854;BME280;44154;45.506;-122.806;2023-04-27T06:07:48;101162.06;;;27.12;35.14
50854;BME280;44154;45.506;-122.806;2023-04-27T06:10:15;101149.59;;;26.99;35.28
50854;BME280;44154;45.506;-122.806;2023-04-27T06:12:41;101164.81;;;27.12;35.05
50854;BME280;44154;45.506;-122.806;2023-04-27T06:15:07;101171.16;;;27.13;35.15
50854;BME280;44154;45.506;-122.806;2023-04-27T06:17:38;101174.16;;;27.11;34.81
50854;BME280;44154;45.506;-122.806;2023-04-27T06:20:05;101169.44;;;27.07;35.09
50854;BME280;44154;45.506;-122.806;2023-04-27T06:22:32;101162.25;;;27.00;35.15
50854;BME280;44154;45.506;-122.806;2023-04-27T06:24:59;101160.25;;;26.91;35.09
50854;BME280;44154;45.506;-122.806;2023-04-27T06:27:25;101174.91;;;27.02;35.06
50854;BME280;44154;45.506;-122.806;2023-04-27T06:29:51;101182.06;;;27.03;34.79
50854;BME280;44154;45.506;-122.806;2023-04-27T06:32:17;101188.91;;;27.05;34.77
50854;BME280;44154;45.506;-122.806;2023-04-27T06:34:43;101183.69;;;27.04;34.67
50854;BME280;44154;45.506;-122.806;2023-04-27T06:37:10;101191.38;;;27.02;34.75
50854;BME280;44154;45.506;-122.806;2023-04-27T06:39:36;101190.31;;;27.08;34.91
50854;BME280;44154;45.506;-122.806;2023-04-27T06:42:02;101193.66;;;27.10;34.78
50854;BME280;44154;45.506;-122.806;2023-04-27T06:44:29;101198.31;;;27.09;34.49
50854;BME280;44154;45.506;-122.806;2023-04-27T06:46:55;101201.56;;;27.06;34.61
50854;BME280;44154;45.506;-122.806;2023-04-27T06:49:21;101202.38;;;27.02;34.37
50854;BME280;44154;45.506;-122.806;2023-04-27T06:51:49;101206.19;;;27.00;34.97
50854;BME280;44154;45.506;-122.806;2023-04-27T06:54:16;101205.06;;;26.96;34.53
50854;BME280;44154;45.506;-122.806;2023-04-27T06:56:42;101210.25;;;26.93;34.54
50854;BME280;44154;45.506;-122.806;2023-04-27T06:59:09;101213.28;;;26.91;34.69
50854;BME280;44154;45.506;-122.806;2023-04-27T07:01:36;101209.66;;;26.86;34.53
50854;BME280;44154;45.506;-122.806;2023-04-27T07:04:03;101216.81;;;26.87;34.89
50854;BME280;44154;45.506;-122.806;2023-04-27T07:06:30;101211.31;;;26.87;34.84
50854;BME280;44154;45.506;-122.806;2023-04-27T07:08:57;101209.91;;;26.84;34.91
50854;BME280;44154;45.506;-122.806;2023-04-27T07:11:23;101198.88;;;26.79;34.94
50854;BME280;44154;45.506;-122.806;2023-04-27T07:13:50;101217.31;;;26.83;35.06
50854;BME280;44154;45.506;-122.806;2023-04-27T07:16:18;101203.53;;;26.78;34.97
50854;BME280;44154;45.506;-122.806;2023-04-27T07:18:44;101206.59;;;26.82;35.01
50854;BME280;44154;45.506;-122.806;2023-04-27T07:21:11;101212.66;;;26.84;34.74
50854;BME280;44154;45.506;-122.806;2023-04-27T07:23:38;101215.66;;;26.82;34.54
50854;BME280;44154;45.506;-122.806;2023-04-27T07:26:06;101203.75;;;26.72;35.07
50854;BME280;44154;45.506;-122.806;2023-04-27T07:28:32;101204.28;;;26.69;35.52
50854;BME280;44154;45.506;-122.806;2023-04-27T07:31:03;101189.84;;;26.56;35.10
50854;BME280;44154;45.506;-122.806;2023-04-27T07:33:30;101213.06;;;26.71;34.87
50854;BME280;44154;45.506;-122.806;2023-04-27T07:35:57;101206.75;;;26.70;35.24
50854;BME280;44154;45.506;-122.806;2023-04-27T07:38:23;101205.94;;;26.70;34.76
50854;BME280;44154;45.506;-122.806;2023-04-27T07:40:50;101207.56;;;26.71;34.90
50854;BME280;44154;45.506;-122.806;2023-04-27T07:43:17;101204.28;;;26.69;34.79
50854;BME280;44154;45.506;-122.806;2023-04-27T07:45:43;101203.06;;;26.59;35.02
50854;BME280;44154;45.506;-122.806;2023-04-27T07:48:10;101193.09;;;26.53;35.02
50854;BME280;44154;45.506;-122.806;2023-04-27T07:50:36;101207.44;;;26.60;34.88
50854;BME280;44154;45.506;-122.806;2023-04-27T07:53:02;101204.97;;;26.59;34.78
50854;BME280;44154;45.506;-122.806;2023-04-27T07:55:28;101212.63;;;26.57;34.89
50854;BME280;44154;45.506;-122.806;2023-04-27T07:57:55;101210.88;;;26.45;35.29
50854;BME280;44154;45.506;-122.806;2023-04-27T08:00:22;101207.59;;;26.48;35.20
50854;BME280;44154;45.506;-122.806;2023-04-27T08:02:51;101213.69;;;26.51;35.03
50854;BME280;44154;45.506;-122.806;2023-04-27T08:05:18;101203.94;;;26.38;35.28
50854;BME280;44154;45.506;-122.806;2023-04-27T08:07:44;101214.06;;;26.37;35.43
50854;BME280;44154;45.506;-122.806;2023-04-27T08:10:11;101209.44;;;26.38;35.39
50854;BME280;44154;45.506;-122.806;2023-04-27T08:12:37;101195.00;;;26.25;35.66
50854;BME280;44154;45.506;-122.806;2023-04-27T08:15:05;101212.91;;;26.33;35.59
50854;BME280;44154;45.506;-122.806;2023-04-27T08:17:32;101215.09;;;26.31;35.84
50854;BME280;44154;45.506;-122.806;2023-04-27T08:19:58;101208.34;;;26.17;35.60
50854;BME280;44154;45.506;-122.806;2023-04-27T08:22:24;101214.47;;;26.24;36.04
50854;BME280;44154;45.506;-122.806;2023-04-27T08:24:50;101220.72;;;26.19;36.13
50854;BME280;44154;45.506;-122.806;2023-04-27T08:27:17;101204.72;;;26.11;36.35
50854;BME280;44154;45.506;-122.806;2023-04-27T08:29:46;101223.59;;;26.29;35.55
50854;BME280;44154;45.506;-122.806;2023-04-27T08:32:13;101186.03;;;26.08;35.70
50854;BME280;44154;45.506;-122.806;2023-04-27T08:34:39;101223.06;;;26.33;35.70
50854;BME280;44154;45.506;-122.806;2023-04-27T08:37:06;101209.81;;;26.24;35.55
50854;BME280;44154;45.506;-122.806;2023-04-27T08:39:33;101209.69;;;26.14;35.79
50854;BME280;44154;45.506;-122.806;2023-04-27T08:41:59;101209.69;;;26.14;35.72
50854;BME280;44154;45.506;-122.806;2023-04-27T08:44:25;101228.50;;;26.27;35.78
50854;BME280;44154;45.506;-122.806;2023-04-27T08:46:52;101232.00;;;26.23;35.70
50854;BME280;44154;45.506;-122.806;2023-04-27T08:49:18;101227.59;;;26.22;35.88
50854;BME280;44154;45.506;-122.806;2023-04-27T08:51:45;101225.13;;;26.20;35.89
50854;BME280;44154;45.506;-122.806;2023-04-27T08:54:11;101228.13;;;26.19;35.91
50854;BME280;44154;45.506;-122.806;2023-04-27T08:56:38;101212.63;;;26.07;35.84
50854;BME280;44154;45.506;-122.806;2023-04-27T08:59:15;101218.44;;;26.11;35.69
50854;BME280;44154;45.506;-122.806;2023-04-27T09:01:46;101197.94;;;25.96;35.95
50854;BME280;44154;45.506;-122.806;2023-04-27T09:04:15;101208.06;;;25.96;36.08
50854;BME280;44154;45.506;-122.806;2023-04-27T09:06:42;101219.47;;;26.05;36.07
50854;BME280;44154;45.506;-122.806;2023-04-27T09:09:08;101144.22;;;25.56;35.78
50854;BME280;44154;45.506;-122.806;2023-04-27T09:11:37;101215.56;;;26.01;36.15
50854;BME280;44154;45.506;-122.806;2023-04-27T09:14:23;101198.44;;;25.93;35.79
50854;BME280;44154;45.506;-122.806;2023-04-27T09:16:56;101222.47;;;26.03;35.97
50854;BME280;44154;45.506;-122.806;2023-04-27T09:19:27;101224.03;;;25.99;35.88
50854;BME280;44154;45.506;-122.806;2023-04-27T09:22:07;101217.69;;;25.98;36.07
50854;BME280;44154;45.506;-122.806;2023-04-27T09:24:33;101218.31;;;26.01;35.78
50854;BME280;44154;45.506;-122.806;2023-04-27T09:27:00;101215.97;;;25.92;36.21
50854;BME280;44154;45.506;-122.806;2023-04-27T09:29:35;101210.47;;;25.92;36.35
50854;BME280;44154;45.506;-122.806;2023-04-27T09:32:12;101220.44;;;25.98;36.35
50854;BME280;44154;45.506;-122.806;2023-04-27T09:34:39;101211.00;;;25.89;36.61
50854;BME280;44154;45.506;-122.806;2023-04-27T09:37:06;101205.25;;;25.91;37.11
50854;BME280;44154;45.506;-122.806;2023-04-27T09:39:32;101203.94;;;25.93;37.16
50854;BME280;44154;45.506;-122.806;2023-04-27T09:41:59;101190.09;;;25.83;36.88
50854;BME280;44154;45.506;-122.806;2023-04-27T09:44:27;101217.69;;;25.98;36.85
50854;BME280;44154;45.506;-122.806;2023-04-27T09:46:57;101215.19;;;25.97;36.54
50854;BME280;44154;45.506;-122.806;2023-04-27T09:49:26;101217.38;;;25.95;36.51
50854;BME280;44154;45.506;-122.806;2023-04-27T09:51:56;101196.91;;;25.80;37.02
50854;BME280;44154;45.506;-122.806;2023-04-27T09:54:26;101204.09;;;25.87;36.59
50854;BME280;44154;45.506;-122.806;2023-04-27T09:57:07;101198.22;;;25.78;37.05
50854;BME280;44154;45.506;-122.806;2023-04-27T10:02:48;101212.31;;;25.87;37.20
50854;BME280;44154;45.506;-122.806;2023-04-27T10:05:44;101215.03;;;25.82;37.58
50854;BME280;44154;45.506;-122.806;2023-04-27T10:08:14;101194.03;;;25.70;37.57
50854;BME280;44154;45.506;-122.806;2023-04-27T10:10:47;101210.28;;;25.77;37.36
50854;BME280;44154;45.506;-122.806;2023-04-27T10:13:21;101209.78;;;25.80;37.22
50854;BME280;44154;45.506;-122.806;2023-04-27T10:15:48;101208.13;;;25.79;36.74
50854;BME280;44154;45.506;-122.806;2023-04-27T10:18:33;101202.03;;;25.77;36.76
50854;BME280;44154;45.506;-122.806;2023-04-27T10:21:11;101207.22;;;25.73;36.85
50854;BME280;44154;45.506;-122.806;2023-04-27T10:23:48;101211.03;;;25.72;37.00
50854;BME280;44154;45.506;-122.806;2023-04-27T10:26:26;101190.25;;;25.54;36.60
50854;BME280;44154;45.506;-122.806;2023-04-27T10:29:08;101220.03;;;25.68;36.70
50854;BME280;44154;45.506;-122.806;2023-04-27T10:31:42;101211.25;;;25.66;37.21
50854;BME280;44154;45.506;-122.806;2023-04-27T10:34:14;101200.94;;;25.56;37.79
50854;BME280;44154;45.506;-122.806;2023-04-27T10:36:40;101217.44;;;25.61;38.14
50854;BME280;44154;45.506;-122.806;2023-04-27T10:39:17;101214.97;;;25.59;37.92
50854;BME280;44154;45.506;-122.806;2023-04-27T10:44:26;101217.16;;;25.57;36.99
50854;BME280;44154;45.506;-122.806;2023-04-27T10:46:54;101214.66;;;25.56;37.32
50854;BME280;44154;45.506;-122.806;2023-04-27T10:49:21;101209.94;;;25.51;37.09
50854;BME280;44154;45.506;-122.806;2023-04-27T10:51:51;101211.84;;;25.51;36.98
50854;BME280;44154;45.506;-122.806;2023-04-27T10:54:17;101212.03;;;25.44;37.48
50854;BME280;44154;45.506;-122.806;2023-04-27T10:56:44;101217.97;;;25.41;37.24
50854;BME280;44154;45.506;-122.806;2023-04-27T10:59:10;101223.16;;;25.37;37.58
50854;BME280;44154;45.506;-122.806;2023-04-27T11:01:38;101204.03;;;25.25;37.81
50854;BME280;44154;45.506;-122.806;2023-04-27T11:04:05;101222.31;;;25.37;37.95
50854;BME280;44154;45.506;-122.806;2023-04-27T11:06:31;101220.06;;;25.34;37.30
50854;BME280;44154;45.506;-122.806;2023-04-27T11:09:06;101221.22;;;25.38;38.31
50854;BME280;44154;45.506;-122.806;2023-04-27T11:11:35;101225.53;;;25.34;37.52
50854;BME280;44154;45.506;-122.806;2023-04-27T11:14:01;101208.25;;;25.16;37.75
50854;BME280;44154;45.506;-122.806;2023-04-27T11:16:29;101233.25;;;25.20;37.63
50854;BME280;44154;45.506;-122.806;2023-04-27T11:19:03;101227.44;;;25.16;37.61
50854;BME280;44154;45.506;-122.806;2023-04-27T11:21:30;101235.31;;;25.13;37.70
50854;BME280;44154;45.506;-122.806;2023-04-27T11:24:05;101242.69;;;25.12;37.95
50854;BME280;44154;45.506;-122.806;2023-04-27T11:26:32;101233.56;;;25.06;37.89
50854;BME280;44154;45.506;-122.806;2023-04-27T11:29:00;101241.88;;;25.11;37.76
50854;BME280;44154;45.506;-122.806;2023-04-27T11:31:46;101230.91;;;25.11;38.07
50854;BME280;44154;45.506;-122.806;2023-04-27T11:34:22;101242.69;;;25.12;38.19
50854;BME280;44154;45.506;-122.806;2023-04-27T11:36:59;101237.22;;;25.12;38.29
50854;BME280;44154;45.506;-122.806;2023-04-27T11:39:27;101245.38;;;25.07;38.47
50854;BME280;44154;45.506;-122.806;2023-04-27T11:41:54;101243.84;;;24.99;38.15
50854;BME280;44154;45.506;-122.806;2023-04-27T11:44:25;101219.09;;;24.77;38.34
50854;BME280;44154;45.506;-122.806;2023-04-27T11:46:52;101249.88;;;24.84;38.21
50854;BME280;44154;45.506;-122.806;2023-04-27T11:49:18;101228.69;;;24.63;38.48
50854;BME280;44154;45.506;-122.806;2023-04-27T11:51:45;101250.44;;;24.69;38.69
50854;BME280;44154;45.506;-122.806;2023-04-27T11:54:12;101253.81;;;24.59;38.66
50854;BME280;44154;45.506;-122.806;2023-04-27T11:56:40;101234.31;;;24.44;39.23
50854;BME280;44154;45.506;-122.806;2023-04-27T11:59:18;101244.28;;;24.50;39.09
50854;BME280;44154;45.506;-122.806;2023-04-27T12:01:44;101252.50;;;24.50;39.10
50854;BME280;44154;45.506;-122.806;2023-04-27T12:04:11;101236.19;;;24.55;39.29
50854;BME280;44154;45.506;-122.806;2023-04-27T12:06:37;101242.38;;;24.63;38.68
50854;BME280;44154;45.506;-122.806;2023-04-27T12:09:03;101246.28;;;24.67;38.64
50854;BME280;44154;45.506;-122.806;2023-04-27T12:11:30;101222.63;;;24.49;38.78
50854;BME280;44154;45.506;-122.806;2023-04-27T12:13:56;101232.53;;;24.50;38.84
50854;BME280;44154;45.506;-122.806;2023-04-27T12:16:23;101253.09;;;24.52;38.96
50854;BME280;44154;45.506;-122.806;2023-04-27T12:18:49;101236.88;;;24.34;38.93
50854;BME280;44154;45.506;-122.806;2023-04-27T12:21:16;101247.22;;;24.32;39.15
50854;BME280;44154;45.506;-122.806;2023-04-27T12:23:42;101242.81;;;24.31;39.23
50854;BME280;44154;45.506;-122.806;2023-04-27T12:26:09;101242.94;;;24.24;39.25
50854;BME280;44154;45.506;-122.806;2023-04-27T12:28:35;101244.50;;;24.20;39.41